sensor_id;sensor_type;location;lat;lon;timestamp;P1;durP1;ratioP1;P2;durP2;ratioP2
52744;SDS011;38637;49.984;20.426;2023-03-01T00:01:12;133.20;;;76.00;;
52744;SDS011;38637;49.984;20.426;2023-03-01T00:03:39;124.07;;;72.57;;
52744;SDS011;38637;49.984;20.426;2023-03-01T00:06:05;131.47;;;74.97;;
52744;SDS011;38637;49.984;20.426;2023-03-01T00:08:31;124.22;;;71.72;;
52744;SDS011;38637;49.984;20.426;2023-03-01T00:11:17;131.00;;;79.13;;
52744;SDS011;38637;49.984;20.426;2023-03-01T00:13:43;119.20;;;72.87;;
52744;SDS011;38637;49.984;20.426;2023-03-01T00:16:11;114.43;;;75.47;;
52744;SDS011;38637;49.984;20.426;2023-03-01T00:18:38;115.87;;;65.57;;
52744;SDS011;38637;49.984;20.426;2023-03-01T00:21:04;112.23;;;66.03;;
52744;SDS011;38637;49.984;20.426;2023-03-01T00:23:30;110.97;;;72.78;;
52744;SDS011;38637;49.984;20.426;2023-03-01T00:25:55;117.40;;;71.37;;
52744;SDS011;38637;49.984;20.426;2023-03-01T00:28:21;113.37;;;67.23;;
52744;SDS011;38637;49.984;20.426;2023-03-01T00:30:46;105.07;;;64.50;;
52744;SDS011;38637;49.984;20.426;2023-03-01T00:33:12;114.47;;;70.67;;
52744;SDS011;38637;49.984;20.426;2023-03-01T00:35:38;109.27;;;68.70;;
52744;SDS011;38637;49.984;20.426;2023-03-01T00:38:04;104.93;;;67.57;;
52744;SDS011;38637;49.984;20.426;2023-03-01T00:40:30;104.13;;;61.23;;
52744;SDS011;38637;49.984;20.426;2023-03-01T00:42:57;113.63;;;62.43;;
52744;SDS011;38637;49.984;20.426;2023-03-01T00:45:23;108.67;;;65.17;;
52744;SDS011;38637;49.984;20.426;2023-03-01T00:47:49;120.18;;;75.05;;
52744;SDS011;38637;49.984;20.426;2023-03-01T00:50:14;112.38;;;68.63;;
52744;SDS011;38637;49.984;20.426;2023-03-01T00:52:40;112.50;;;65.53;;
52744;SDS011;38637;49.984;20.426;2023-03-01T00:55:05;119.93;;;70.70;;
52744;SDS011;38637;49.984;20.426;2023-03-01T00:57:31;109.80;;;66.22;;
52744;SDS011;38637;49.984;20.426;2023-03-01T00:59:57;113.70;;;65.57;;
52744;SDS011;38637;49.984;20.426;2023-03-01T01:02:22;117.10;;;67.73;;
52744;SDS011;38637;49.984;20.426;2023-03-01T01:04:48;103.47;;;63.73;;
52744;SDS011;38637;49.984;20.426;2023-03-01T01:07:14;112.60;;;70.83;;
52744;SDS011;38637;49.984;20.426;2023-03-01T01:09:40;106.23;;;70.17;;
52744;SDS011;38637;49.984;20.426;2023-03-01T01:12:05;107.53;;;61.27;;
52744;SDS011;38637;49.984;20.426;2023-03-01T01:14:32;106.43;;;61.60;;
52744;SDS011;38637;49.984;20.426;2023-03-01T01:16:57;107.00;;;62.20;;
52744;SDS011;38637;49.984;20.426;2023-03-01T01:19:23;103.43;;;60.27;;
52744;SDS011;38637;49.984;20.426;2023-03-01T01:21:48;100.87;;;58.40;;
52744;SDS011;38637;49.984;20.426;2023-03-01T01:24:14;98.13;;;56.93;;
52744;SDS011;38637;49.984;20.426;2023-03-01T01:26:40;101.60;;;58.47;;
52744;SDS011;38637;49.984;20.426;2023-03-01T01:29:07;114.05;;;65.90;;
52744;SDS011;38637;49.984;20.426;2023-03-01T01:31:33;99.30;;;59.07;;
52744;SDS011;38637;49.984;20.426;2023-03-01T01:33:59;94.45;;;58.47;;
52744;SDS011;38637;49.984;20.426;2023-03-01T01:36:27;101.50;;;59.00;;
52744;SDS011;38637;49.984;20.426;2023-03-01T01:38:52;98.23;;;55.93;;
52744;SDS011;38637;49.984;20.426;2023-03-01T01:41:18;107.37;;;62.57;;
52744;SDS011;38637;49.984;20.426;2023-03-01T01:43:46;106.22;;;66.90;;
52744;SDS011;38637;49.984;20.426;2023-03-01T01:46:31;104.33;;;60.30;;
52744;SDS011;38637;49.984;20.426;2023-03-01T01:49:00;103.93;;;60.13;;
52744;SDS011;38637;49.984;20.426;2023-03-01T01:51:30;102.77;;;65.90;;
52744;SDS011;38637;49.984;20.426;2023-03-01T01:54:03;114.60;;;68.03;;
52744;SDS011;38637;49.984;20.426;2023-03-01T01:56:33;108.70;;;60.03;;
52744;SDS011;38637;49.984;20.426;2023-03-01T01:58:58;105.83;;;61.63;;
52744;SDS011;38637;49.984;20.426;2023-03-01T02:01:24;105.23;;;65.97;;
52744;SDS011;38637;49.984;20.426;2023-03-01T02:03:49;97.47;;;56.23;;
52744;SDS011;38637;49.984;20.426;2023-03-01T02:06:21;103.85;;;62.40;;
52744;SDS011;38637;49.984;20.426;2023-03-01T02:08:48;105.47;;;62.83;;
52744;SDS011;38637;49.984;20.426;2023-03-01T02:11:17;111.23;;;62.67;;
52744;SDS011;38637;49.984;20.426;2023-03-01T02:13:43;114.10;;;67.78;;
52744;SDS011;38637;49.984;20.426;2023-03-01T02:16:09;106.63;;;59.57;;
52744;SDS011;38637;49.984;20.426;2023-03-01T02:18:37;109.57;;;61.10;;
52744;SDS011;38637;49.984;20.426;2023-03-01T02:24:21;101.53;;;56.73;;
52744;SDS011;38637;49.984;20.426;2023-03-01T02:27:09;98.57;;;58.00;;
52744;SDS011;38637;49.984;20.426;2023-03-01T02:29:35;98.23;;;56.53;;
52744;SDS011;38637;49.984;20.426;2023-03-01T02:32:01;109.77;;;58.53;;
52744;SDS011;38637;49.984;20.426;2023-03-01T02:34:28;102.00;;;62.77;;
52744;SDS011;38637;49.984;20.426;2023-03-01T02:36:58;99.80;;;64.63;;
52744;SDS011;38637;49.984;20.426;2023-03-01T02:39:26;100.67;;;58.60;;
52744;SDS011;38637;49.984;20.426;2023-03-01T02:41:56;98.63;;;56.93;;
52744;SDS011;38637;49.984;20.426;2023-03-01T02:44:23;101.23;;;57.73;;
52744;SDS011;38637;49.984;20.426;2023-03-01T02:46:53;104.80;;;59.63;;
52744;SDS011;38637;49.984;20.426;2023-03-01T02:55:09;102.23;;;56.03;;
52744;SDS011;38637;49.984;20.426;2023-03-01T02:57:38;95.73;;;55.40;;
52744;SDS011;38637;49.984;20.426;2023-03-01T03:00:13;93.47;;;53.83;;
52744;SDS011;38637;49.984;20.426;2023-03-01T03:02:49;94.53;;;58.70;;
52744;SDS011;38637;49.984;20.426;2023-03-01T03:05:18;92.57;;;55.53;;
52744;SDS011;38637;49.984;20.426;2023-03-01T03:07:49;97.60;;;55.90;;
52744;SDS011;38637;49.984;20.426;2023-03-01T03:10:28;97.25;;;56.53;;
52744;SDS011;38637;49.984;20.426;2023-03-01T03:12:57;91.13;;;52.47;;
52744;SDS011;38637;49.984;20.426;2023-03-01T03:15:25;96.43;;;54.90;;
52744;SDS011;38637;49.984;20.426;2023-03-01T03:20:18;95.23;;;55.13;;
52744;SDS011;38637;49.984;20.426;2023-03-01T03:22:49;94.33;;;52.90;;
52744;SDS011;38637;49.984;20.426;2023-03-01T03:25:16;93.20;;;55.30;;
52744;SDS011;38637;49.984;20.426;2023-03-01T03:27:43;94.43;;;53.42;;
52744;SDS011;38637;49.984;20.426;2023-03-01T03:30:10;93.43;;;57.87;;
52744;SDS011;38637;49.984;20.426;2023-03-01T03:32:41;96.40;;;58.83;;
52744;SDS011;38637;49.984;20.426;2023-03-01T03:35:08;89.03;;;54.40;;
52744;SDS011;38637;49.984;20.426;2023-03-01T03:37:38;94.77;;;54.50;;
52744;SDS011;38637;49.984;20.426;2023-03-01T03:40:23;94.83;;;56.67;;
52744;SDS011;38637;49.984;20.426;2023-03-01T03:42:48;94.10;;;57.47;;
52744;SDS011;38637;49.984;20.426;2023-03-01T03:45:15;94.87;;;55.70;;
52744;SDS011;38637;49.984;20.426;2023-03-01T03:47:41;94.22;;;56.03;;
52744;SDS011;38637;49.984;20.426;2023-03-01T03:50:06;101.60;;;60.50;;
52744;SDS011;38637;49.984;20.426;2023-03-01T03:52:32;100.67;;;58.87;;
52744;SDS011;38637;49.984;20.426;2023-03-01T03:54:57;93.73;;;53.87;;
52744;SDS011;38637;49.984;20.426;2023-03-01T03:57:22;94.53;;;53.10;;
52744;SDS011;38637;49.984;20.426;2023-03-01T03:59:48;93.97;;;53.17;;
52744;SDS011;38637;49.984;20.426;2023-03-01T04:02:14;95.15;;;52.45;;
52744;SDS011;38637;49.984;20.426;2023-03-01T04:04:46;85.03;;;50.73;;
52744;SDS011;38637;49.984;20.426;2023-03-01T04:07:14;88.57;;;50.97;;
52744;SDS011;38637;49.984;20.426;2023-03-01T04:09:40;95.30;;;56.33;;
52744;SDS011;38637;49.984;20.426;2023-03-01T04:12:07;93.37;;;56.03;;
52744;SDS011;38637;49.984;20.426;2023-03-01T04:14:33;95.10;;;55.00;;
52744;SDS011;38637;49.984;20.426;2023-03-01T04:16:58;95.80;;;52.17;;
52744;SDS011;38637;49.984;20.426;2023-03-01T04:19:23;97.37;;;55.00;;
52744;SDS011;38637;49.984;20.426;2023-03-01T04:21:49;93.90;;;53.87;;
52744;SDS011;38637;49.984;20.426;2023-03-01T04:24:14;98.00;;;52.90;;
52744;SDS011;38637;49.984;20.426;2023-03-01T04:26:39;94.57;;;51.73;;
52744;SDS011;38637;49.984;20.426;2023-03-01T04:29:04;89.90;;;52.17;;
52744;SDS011;38637;49.984;20.426;2023-03-01T04:31:30;86.83;;;52.47;;
52744;SDS011;38637;49.984;20.426;2023-03-01T04:33:55;89.87;;;51.20;;
52744;SDS011;38637;49.984;20.426;2023-03-01T04:36:21;90.50;;;52.13;;
52744;SDS011;38637;49.984;20.426;2023-03-01T04:38:49;86.13;;;50.57;;
52744;SDS011;38637;49.984;20.426;2023-03-01T04:41:16;92.05;;;52.55;;
52744;SDS011;38637;49.984;20.426;2023-03-01T04:43:42;94.60;;;53.30;;
52744;SDS011;38637;49.984;20.426;2023-03-01T04:46:09;95.63;;;53.27;;
52744;SDS011;38637;49.984;20.426;2023-03-01T04:48:37;87.63;;;50.07;;
52744;SDS011;38637;49.984;20.426;2023-03-01T04:51:03;88.68;;;50.75;;
52744;SDS011;38637;49.984;20.426;2023-03-01T04:53:29;82.18;;;47.83;;
52744;SDS011;38637;49.984;20.426;2023-03-01T04:55:55;85.53;;;51.13;;
52744;SDS011;38637;49.984;20.426;2023-03-01T04:58:25;95.85;;;53.55;;
52744;SDS011;38637;49.984;20.426;2023-03-01T05:00:52;94.10;;;49.00;;
52744;SDS011;38637;49.984;20.426;2023-03-01T05:03:18;87.72;;;51.40;;
52744;SDS011;38637;49.984;20.426;2023-03-01T05:05:45;94.03;;;49.88;;
52744;SDS011;38637;49.984;20.426;2023-03-01T05:08:12;83.63;;;47.47;;
52744;SDS011;38637;49.984;20.426;2023-03-01T05:10:45;85.73;;;48.10;;
52744;SDS011;38637;49.984;20.426;2023-03-01T05:13:13;95.00;;;52.30;;
52744;SDS011;38637;49.984;20.426;2023-03-01T05:15:45;82.20;;;48.13;;
52744;SDS011;38637;49.984;20.426;2023-03-01T05:18:11;90.23;;;48.20;;
52744;SDS011;38637;49.984;20.426;2023-03-01T05:20:37;84.80;;;52.93;;
52744;SDS011;38637;49.984;20.426;2023-03-01T05:23:02;92.57;;;52.53;;
52744;SDS011;38637;49.984;20.426;2023-03-01T05:25:30;92.13;;;53.17;;
52744;SDS011;38637;49.984;20.426;2023-03-01T05:27:57;97.77;;;56.80;;
52744;SDS011;38637;49.984;20.426;2023-03-01T05:30:29;102.30;;;59.20;;
52744;SDS011;38637;49.984;20.426;2023-03-01T05:32:58;119.53;;;65.47;;
52744;SDS011;38637;49.984;20.426;2023-03-01T05:35:23;101.33;;;57.43;;
52744;SDS011;38637;49.984;20.426;2023-03-01T05:37:49;107.20;;;56.83;;
52744;SDS011;38637;49.984;20.426;2023-03-01T05:40:16;107.60;;;63.83;;
52744;SDS011;38637;49.984;20.426;2023-03-01T05:42:44;103.33;;;60.20;;
52744;SDS011;38637;49.984;20.426;2023-03-01T05:45:14;114.73;;;60.23;;
52744;SDS011;38637;49.984;20.426;2023-03-01T05:47:41;111.13;;;58.70;;
52744;SDS011;38637;49.984;20.426;2023-03-01T05:50:09;101.70;;;58.23;;
52744;SDS011;38637;49.984;20.426;2023-03-01T05:52:36;96.70;;;57.70;;
52744;SDS011;38637;49.984;20.426;2023-03-01T05:55:01;98.93;;;60.23;;
52744;SDS011;38637;49.984;20.426;2023-03-01T05:57:28;101.30;;;57.07;;
52744;SDS011;38637;49.984;20.426;2023-03-01T05:59:53;117.43;;;70.93;;
52744;SDS011;38637;49.984;20.426;2023-03-01T06:02:19;128.63;;;75.87;;
52744;SDS011;38637;49.984;20.426;2023-03-01T06:04:44;121.47;;;71.93;;
52744;SDS011;38637;49.984;20.426;2023-03-01T06:07:10;128.07;;;75.23;;
52744;SDS011;38637;49.984;20.426;2023-03-01T06:09:35;117.30;;;72.30;;
52744;SDS011;38637;49.984;20.426;2023-03-01T06:12:00;115.40;;;68.57;;
52744;SDS011;38637;49.984;20.426;2023-03-01T06:14:25;112.77;;;70.30;;
52744;SDS011;38637;49.984;20.426;2023-03-01T06:16:51;119.47;;;70.10;;
52744;SDS011;38637;49.984;20.426;2023-03-01T06:19:16;115.50;;;78.30;;
52744;SDS011;38637;49.984;20.426;2023-03-01T06:21:41;106.60;;;69.37;;
52744;SDS011;38637;49.984;20.426;2023-03-01T06:24:07;106.17;;;67.33;;
52744;SDS011;38637;49.984;20.426;2023-03-01T06:26:33;109.35;;;67.28;;
52744;SDS011;38637;49.984;20.426;2023-03-01T06:28:58;118.53;;;78.33;;
52744;SDS011;38637;49.984;20.426;2023-03-01T06:31:23;125.43;;;70.60;;
52744;SDS011;38637;49.984;20.426;2023-03-01T06:33:49;115.13;;;68.80;;
52744;SDS011;38637;49.984;20.426;2023-03-01T06:36:14;119.93;;;79.33;;
52744;SDS011;38637;49.984;20.426;2023-03-01T06:38:43;120.23;;;81.67;;
52744;SDS011;38637;49.984;20.426;2023-03-01T06:41:09;116.00;;;79.60;;
52744;SDS011;38637;49.984;20.426;2023-03-01T06:43:34;124.47;;;79.97;;
52744;SDS011;38637;49.984;20.426;2023-03-01T06:45:59;117.27;;;79.27;;
52744;SDS011;38637;49.984;20.426;2023-03-01T06:48:26;121.38;;;79.55;;
52744;SDS011;38637;49.984;20.426;2023-03-01T06:50:51;118.40;;;81.17;;
52744;SDS011;38637;49.984;20.426;2023-03-01T06:53:16;124.13;;;80.67;;
52744;SDS011;38637;49.984;20.426;2023-03-01T06:55:41;140.17;;;94.37;;
52744;SDS011;38637;49.984;20.426;2023-03-01T06:58:08;146.40;;;97.60;;
52744;SDS011;38637;49.984;20.426;2023-03-01T07:00:34;153.07;;;94.67;;
52744;SDS011;38637;49.984;20.426;2023-03-01T07:03:00;144.40;;;92.00;;
52744;SDS011;38637;49.984;20.426;2023-03-01T07:05:27;149.63;;;96.57;;
52744;SDS011;38637;49.984;20.426;2023-03-01T07:07:52;155.00;;;96.40;;
52744;SDS011;38637;49.984;20.426;2023-03-01T07:10:18;143.13;;;92.53;;
52744;SDS011;38637;49.984;20.426;2023-03-01T07:12:44;136.03;;;87.47;;
52744;SDS011;38637;49.984;20.426;2023-03-01T07:15:09;151.63;;;93.70;;
52744;SDS011;38637;49.984;20.426;2023-03-01T07:17:35;142.93;;;92.87;;
52744;SDS011;38637;49.984;20.426;2023-03-01T07:20:00;134.90;;;85.93;;
52744;SDS011;38637;49.984;20.426;2023-03-01T07:22:25;144.83;;;81.43;;
52744;SDS011;38637;49.984;20.426;2023-03-01T07:24:51;135.10;;;79.43;;
52744;SDS011;38637;49.984;20.426;2023-03-01T07:27:16;139.50;;;88.60;;
52744;SDS011;38637;49.984;20.426;2023-03-01T07:29:41;108.67;;;63.77;;
52744;SDS011;38637;49.984;20.426;2023-03-01T07:32:06;94.20;;;57.23;;
52744;SDS011;38637;49.984;20.426;2023-03-01T07:34:32;93.57;;;58.27;;
52744;SDS011;38637;49.984;20.426;2023-03-01T07:36:58;80.33;;;53.40;;
52744;SDS011;38637;49.984;20.426;2023-03-01T07:39:23;79.37;;;51.87;;
52744;SDS011;38637;49.984;20.426;2023-03-01T07:41:49;80.23;;;52.50;;
52744;SDS011;38637;49.984;20.426;2023-03-01T07:44:15;85.55;;;51.03;;
52744;SDS011;38637;49.984;20.426;2023-03-01T07:46:41;84.68;;;53.47;;
52744;SDS011;38637;49.984;20.426;2023-03-01T07:49:06;83.60;;;53.93;;
52744;SDS011;38637;49.984;20.426;2023-03-01T07:51:32;78.10;;;50.27;;
52744;SDS011;38637;49.984;20.426;2023-03-01T07:53:57;83.27;;;53.50;;
52744;SDS011;38637;49.984;20.426;2023-03-01T07:56:22;81.63;;;52.87;;
52744;SDS011;38637;49.984;20.426;2023-03-01T07:58:48;83.30;;;53.93;;
52744;SDS011;38637;49.984;20.426;2023-03-01T08:01:15;83.40;;;50.50;;
52744;SDS011;38637;49.984;20.426;2023-03-01T08:03:42;74.07;;;49.55;;
52744;SDS011;38637;49.984;20.426;2023-03-01T08:06:09;76.90;;;49.38;;
52744;SDS011;38637;49.984;20.426;2023-03-01T08:08:35;67.13;;;46.15;;
52744;SDS011;38637;49.984;20.426;2023-03-01T08:11:02;69.67;;;46.73;;
52744;SDS011;38637;49.984;20.426;2023-03-01T08:13:29;63.20;;;44.47;;
52744;SDS011;38637;49.984;20.426;2023-03-01T08:15:59;66.43;;;42.40;;
52744;SDS011;38637;49.984;20.426;2023-03-01T08:18:26;62.50;;;39.97;;
52744;SDS011;38637;49.984;20.426;2023-03-01T08:20:51;63.43;;;43.13;;
52744;SDS011;38637;49.984;20.426;2023-03-01T08:23:16;64.70;;;40.87;;
52744;SDS011;38637;49.984;20.426;2023-03-01T08:25:42;59.37;;;39.13;;
52744;SDS011;38637;49.984;20.426;2023-03-01T08:28:07;59.67;;;38.47;;
52744;SDS011;38637;49.984;20.426;2023-03-01T08:30:32;57.67;;;38.00;;
52744;SDS011;38637;49.984;20.426;2023-03-01T08:32:58;56.23;;;36.57;;
52744;SDS011;38637;49.984;20.426;2023-03-01T08:35:23;52.33;;;35.87;;
52744;SDS011;38637;49.984;20.426;2023-03-01T08:37:48;55.47;;;37.20;;
52744;SDS011;38637;49.984;20.426;2023-03-01T08:40:14;59.63;;;34.83;;
52744;SDS011;38637;49.984;20.426;2023-03-01T08:42:40;52.47;;;35.03;;
52744;SDS011;38637;49.984;20.426;2023-03-01T08:45:08;57.70;;;37.40;;
52744;SDS011;38637;49.984;20.426;2023-03-01T08:47:34;58.20;;;37.03;;
52744;SDS011;38637;49.984;20.426;2023-03-01T08:49:59;52.87;;;35.80;;
52744;SDS011;38637;49.984;20.426;2023-03-01T08:52:25;56.53;;;36.97;;
52744;SDS011;38637;49.984;20.426;2023-03-01T08:54:50;54.10;;;35.73;;
52744;SDS011;38637;49.984;20.426;2023-03-01T08:57:16;57.47;;;35.70;;
52744;SDS011;38637;49.984;20.426;2023-03-01T08:59:41;51.93;;;34.73;;
52744;SDS011;38637;49.984;20.426;2023-03-01T09:02:11;52.10;;;36.63;;
52744;SDS011;38637;49.984;20.426;2023-03-01T09:04:38;54.53;;;34.63;;
52744;SDS011;38637;49.984;20.426;2023-03-01T09:07:04;52.28;;;33.55;;
52744;SDS011;38637;49.984;20.426;2023-03-01T09:09:29;49.70;;;33.47;;
52744;SDS011;38637;49.984;20.426;2023-03-01T09:11:54;45.20;;;31.63;;
52744;SDS011;38637;49.984;20.426;2023-03-01T09:14:20;48.33;;;30.40;;
52744;SDS011;38637;49.984;20.426;2023-03-01T09:16:45;41.23;;;27.63;;
52744;SDS011;38637;49.984;20.426;2023-03-01T09:19:11;36.33;;;25.65;;
52744;SDS011;38637;49.984;20.426;2023-03-01T09:21:38;36.75;;;23.88;;
52744;SDS011;38637;49.984;20.426;2023-03-01T09:24:03;38.40;;;25.17;;
52744;SDS011;38637;49.984;20.426;2023-03-01T09:26:29;41.57;;;27.07;;
52744;SDS011;38637;49.984;20.426;2023-03-01T09:28:55;35.07;;;22.33;;
52744;SDS011;38637;49.984;20.426;2023-03-01T09:31:21;32.47;;;21.90;;
52744;SDS011;38637;49.984;20.426;2023-03-01T09:33:48;35.08;;;23.65;;
52744;SDS011;38637;49.984;20.426;2023-03-01T09:36:16;33.78;;;21.63;;
52744;SDS011;38637;49.984;20.426;2023-03-01T09:38:43;30.98;;;20.55;;
52744;SDS011;38637;49.984;20.426;2023-03-01T09:41:33;28.63;;;17.92;;
52744;SDS011;38637;49.984;20.426;2023-03-01T09:44:04;23.25;;;14.60;;
52744;SDS011;38637;49.984;20.426;2023-03-01T09:49:21;22.67;;;15.25;;
52744;SDS011;38637;49.984;20.426;2023-03-01T09:52:23;26.48;;;17.83;;
52744;SDS011;38637;49.984;20.426;2023-03-01T09:54:49;26.40;;;17.55;;
52744;SDS011;38637;49.984;20.426;2023-03-01T09:57:19;24.00;;;16.67;;
52744;SDS011;38637;49.984;20.426;2023-03-01T10:00:00;25.33;;;16.83;;
52744;SDS011;38637;49.984;20.426;2023-03-01T10:02:43;26.42;;;16.70;;
52744;SDS011;38637;49.984;20.426;2023-03-01T10:05:14;23.13;;;14.50;;
52744;SDS011;38637;49.984;20.426;2023-03-01T10:08:06;23.17;;;15.90;;
52744;SDS011;38637;49.984;20.426;2023-03-01T10:10:37;26.65;;;17.65;;
52744;SDS011;38637;49.984;20.426;2023-03-01T10:13:15;25.35;;;16.55;;
52744;SDS011;38637;49.984;20.426;2023-03-01T10:15:50;23.65;;;15.25;;
52744;SDS011;38637;49.984;20.426;2023-03-01T10:18:30;25.60;;;17.23;;
52744;SDS011;38637;49.984;20.426;2023-03-01T10:21:02;22.40;;;12.93;;
52744;SDS011;38637;49.984;20.426;2023-03-01T10:23:35;23.48;;;17.00;;
52744;SDS011;38637;49.984;20.426;2023-03-01T10:26:07;22.70;;;15.35;;
52744;SDS011;38637;49.984;20.426;2023-03-01T10:31:44;30.05;;;18.42;;
52744;SDS011;38637;49.984;20.426;2023-03-01T10:34:17;25.20;;;16.88;;
52744;SDS011;38637;49.984;20.426;2023-03-01T10:37:01;29.58;;;19.23;;
52744;SDS011;38637;49.984;20.426;2023-03-01T10:42:30;45.97;;;28.13;;
52744;SDS011;38637;49.984;20.426;2023-03-01T10:45:22;32.33;;;21.50;;
52744;SDS011;38637;49.984;20.426;2023-03-01T10:53:24;47.78;;;28.35;;
52744;SDS011;38637;49.984;20.426;2023-03-01T10:58:34;33.08;;;21.52;;
52744;SDS011;38637;49.984;20.426;2023-03-01T11:01:02;35.90;;;23.10;;
52744;SDS011;38637;49.984;20.426;2023-03-01T11:06:01;36.08;;;23.08;;
52744;SDS011;38637;49.984;20.426;2023-03-01T11:11:05;45.78;;;29.63;;
52744;SDS011;38637;49.984;20.426;2023-03-01T11:16:47;40.00;;;24.95;;
52744;SDS011;38637;49.984;20.426;2023-03-01T11:19:22;33.70;;;20.40;;
52744;SDS011;38637;49.984;20.426;2023-03-01T11:24:16;32.72;;;20.38;;
52744;SDS011;38637;49.984;20.426;2023-03-01T11:26:45;36.83;;;22.98;;
52744;SDS011;38637;49.984;20.426;2023-03-01T11:29:33;35.40;;;24.58;;
52744;SDS011;38637;49.984;20.426;2023-03-01T11:32:05;34.90;;;23.58;;
52744;SDS011;38637;49.984;20.426;2023-03-01T11:37:21;35.67;;;21.88;;
52744;SDS011;38637;49.984;20.426;2023-03-01T11:39:58;37.00;;;23.42;;
52744;SDS011;38637;49.984;20.426;2023-03-01T11:42:36;37.33;;;23.30;;
52744;SDS011;38637;49.984;20.426;2023-03-01T11:45:11;38.15;;;24.40;;
52744;SDS011;38637;49.984;20.426;2023-03-01T11:47:54;38.38;;;24.42;;
52744;SDS011;38637;49.984;20.426;2023-03-01T11:50:32;36.65;;;23.73;;
52744;SDS011;38637;49.984;20.426;2023-03-01T11:58:39;38.22;;;21.65;;
52744;SDS011;38637;49.984;20.426;2023-03-01T12:04:05;41.92;;;21.35;;
52744;SDS011;38637;49.984;20.426;2023-03-01T12:07:10;28.70;;;19.58;;
52744;SDS011;38637;49.984;20.426;2023-03-01T12:12:34;33.75;;;21.42;;
52744;SDS011;38637;49.984;20.426;2023-03-01T12:17:58;29.17;;;18.58;;
52744;SDS011;38637;49.984;20.426;2023-03-01T12:20:58;26.75;;;18.63;;
52744;SDS011;38637;49.984;20.426;2023-03-01T12:23:54;25.60;;;17.60;;
52744;SDS011;38637;49.984;20.426;2023-03-01T12:26:36;22.60;;;15.05;;
52744;SDS011;38637;49.984;20.426;2023-03-01T12:40:16;30.63;;;18.80;;
52744;SDS011;38637;49.984;20.426;2023-03-01T12:51:30;22.20;;;14.48;;
52744;SDS011;38637;49.984;20.426;2023-03-01T12:53:58;19.05;;;13.73;;
52744;SDS011;38637;49.984;20.426;2023-03-01T12:56:27;21.83;;;14.35;;
52744;SDS011;38637;49.984;20.426;2023-03-01T13:04:31;24.30;;;13.00;;
52744;SDS011;38637;49.984;20.426;2023-03-01T13:07:21;27.23;;;17.52;;
52744;SDS011;38637;49.984;20.426;2023-03-01T13:10:05;21.92;;;12.65;;
52744;SDS011;38637;49.984;20.426;2023-03-01T13:17:49;17.58;;;12.43;;
52744;SDS011;38637;49.984;20.426;2023-03-01T13:20:18;20.77;;;11.60;;
52744;SDS011;38637;49.984;20.426;2023-03-01T13:22:45;20.40;;;11.43;;
52744;SDS011;38637;49.984;20.426;2023-03-01T13:27:43;17.17;;;10.68;;
52744;SDS011;38637;49.984;20.426;2023-03-01T13:30:38;14.80;;;10.23;;
52744;SDS011;38637;49.984;20.426;2023-03-01T13:33:33;17.40;;;11.00;;
52744;SDS011;38637;49.984;20.426;2023-03-01T13:36:05;12.95;;;9.52;;
52744;SDS011;38637;49.984;20.426;2023-03-01T13:46:49;19.10;;;13.27;;
52744;SDS011;38637;49.984;20.426;2023-03-01T13:49:20;22.77;;;12.85;;
52744;SDS011;38637;49.984;20.426;2023-03-01T13:51:49;19.00;;;11.50;;
52744;SDS011;38637;49.984;20.426;2023-03-01T13:54:16;21.80;;;13.13;;
52744;SDS011;38637;49.984;20.426;2023-03-01T13:56:51;21.25;;;14.10;;
52744;SDS011;38637;49.984;20.426;2023-03-01T13:59:18;24.73;;;15.73;;
52744;SDS011;38637;49.984;20.426;2023-03-01T14:01:51;23.98;;;15.05;;
52744;SDS011;38637;49.984;20.426;2023-03-01T14:04:28;20.95;;;15.20;;
52744;SDS011;38637;49.984;20.426;2023-03-01T14:07:12;22.20;;;14.65;;
52744;SDS011;38637;49.984;20.426;2023-03-01T14:09:42;21.23;;;14.55;;
52744;SDS011;38637;49.984;20.426;2023-03-01T14:17:50;21.67;;;14.20;;
52744;SDS011;38637;49.984;20.426;2023-03-01T14:20:25;21.45;;;14.88;;
52744;SDS011;38637;49.984;20.426;2023-03-01T14:22:54;26.52;;;18.42;;
52744;SDS011;38637;49.984;20.426;2023-03-01T14:25:26;28.92;;;16.92;;
52744;SDS011;38637;49.984;20.426;2023-03-01T14:27:59;21.45;;;15.32;;
52744;SDS011;38637;49.984;20.426;2023-03-01T14:30:30;25.00;;;15.48;;
52744;SDS011;38637;49.984;20.426;2023-03-01T14:33:00;26.70;;;18.10;;
52744;SDS011;38637;49.984;20.426;2023-03-01T14:35:28;25.33;;;17.08;;
52744;SDS011;38637;49.984;20.426;2023-03-01T14:37:55;23.15;;;16.35;;
52744;SDS011;38637;49.984;20.426;2023-03-01T14:40:31;24.50;;;17.23;;
52744;SDS011;38637;49.984;20.426;2023-03-01T14:42:59;23.45;;;17.38;;
52744;SDS011;38637;49.984;20.426;2023-03-01T14:45:32;24.00;;;17.55;;
52744;SDS011;38637;49.984;20.426;2023-03-01T14:47:58;23.10;;;17.70;;
52744;SDS011;38637;49.984;20.426;2023-03-01T14:50:28;22.50;;;15.63;;
52744;SDS011;38637;49.984;20.426;2023-03-01T14:52:57;30.80;;;19.83;;
52744;SDS011;38637;49.984;20.426;2023-03-01T14:55:34;20.33;;;14.55;;
52744;SDS011;38637;49.984;20.426;2023-03-01T15:00:31;27.67;;;16.00;;
52744;SDS011;38637;49.984;20.426;2023-03-01T15:03:06;31.63;;;16.38;;
52744;SDS011;38637;49.984;20.426;2023-03-01T15:05:38;30.17;;;16.75;;
52744;SDS011;38637;49.984;20.426;2023-03-01T15:08:05;25.48;;;14.68;;
52744;SDS011;38637;49.984;20.426;2023-03-01T15:10:33;28.75;;;15.65;;
52744;SDS011;38637;49.984;20.426;2023-03-01T15:15:47;20.80;;;14.60;;
52744;SDS011;38637;49.984;20.426;2023-03-01T15:18:19;23.67;;;16.13;;
52744;SDS011;38637;49.984;20.426;2023-03-01T15:20:49;25.75;;;16.48;;
52744;SDS011;38637;49.984;20.426;2023-03-01T15:23:17;28.85;;;17.92;;
52744;SDS011;38637;49.984;20.426;2023-03-01T15:25:43;25.48;;;16.33;;
52744;SDS011;38637;49.984;20.426;2023-03-01T15:28:18;36.30;;;22.10;;
52744;SDS011;38637;49.984;20.426;2023-03-01T15:30:52;29.08;;;19.33;;
52744;SDS011;38637;49.984;20.426;2023-03-01T15:35:56;32.40;;;18.77;;
52744;SDS011;38637;49.984;20.426;2023-03-01T15:41:24;46.72;;;25.48;;
52744;SDS011;38637;49.984;20.426;2023-03-01T15:43:56;68.55;;;32.78;;
52744;SDS011;38637;49.984;20.426;2023-03-01T15:48:57;149.77;;;56.65;;
52744;SDS011;38637;49.984;20.426;2023-03-01T15:51:31;97.07;;;42.13;;
52744;SDS011;38637;49.984;20.426;2023-03-01T15:54:04;92.20;;;41.58;;
52744;SDS011;38637;49.984;20.426;2023-03-01T15:56:31;48.35;;;28.40;;
52744;SDS011;38637;49.984;20.426;2023-03-01T15:58:58;48.53;;;28.95;;
52744;SDS011;38637;49.984;20.426;2023-03-01T16:01:25;33.60;;;22.48;;
52744;SDS011;38637;49.984;20.426;2023-03-01T16:03:50;35.00;;;22.07;;
52744;SDS011;38637;49.984;20.426;2023-03-01T16:06:16;30.47;;;21.40;;
52744;SDS011;38637;49.984;20.426;2023-03-01T16:08:41;31.87;;;20.30;;
52744;SDS011;38637;49.984;20.426;2023-03-01T16:11:13;37.60;;;24.30;;
52744;SDS011;38637;49.984;20.426;2023-03-01T16:13:40;36.55;;;24.35;;